sensor_id;sensor_type;location;lat;lon;timestamp;temperature;humidity
68109;SHT30;54893;49.864;19.084;2024-02-04T00:02:14;7.30;93.82
68109;SHT30;54893;49.864;19.084;2024-02-04T00:07:15;7.34;93.62
68109;SHT30;54893;49.864;19.084;2024-02-04T00:12:15;7.40;93.09
68109;SHT30;54893;49.864;19.084;2024-02-04T00:17:16;7.31;93.64
68109;SHT30;54893;49.864;19.084;2024-02-04T00:22:16;7.33;93.59
68109;SHT30;54893;49.864;19.084;2024-02-04T00:27:18;7.31;93.62
68109;SHT30;54893;49.864;19.084;2024-02-04T00:32:19;7.34;93.22
68109;SHT30;54893;49.864;19.084;2024-02-04T00:37:19;7.46;92.72
68109;SHT30;54893;49.864;19.084;2024-02-04T00:42:20;7.37;92.86
68109;SHT30;54893;49.864;19.084;2024-02-04T00:47:20;7.53;92.54
68109;SHT30;54893;49.864;19.084;2024-02-04T00:52:20;7.47;92.64
68109;SHT30;54893;49.864;19.084;2024-02-04T00:57:21;7.49;92.40
68109;SHT30;54893;49.864;19.084;2024-02-04T01:02:21;7.56;92.04
68109;SHT30;54893;49.864;19.084;2024-02-04T01:07:22;7.51;92.09
68109;SHT30;54893;49.864;19.084;2024-02-04T01:12:22;7.59;92.07
68109;SHT30;54893;49.864;19.084;2024-02-04T01:17:22;7.60;92.06
68109;SHT30;54893;49.864;19.084;2024-02-04T01:22:23;7.63;91.84
68109;SHT30;54893;49.864;19.084;2024-02-04T01:27:26;7.75;91.49
68109;SHT30;54893;49.864;19.084;2024-02-04T01:32:26;7.70;91.80
68109;SHT30;54893;49.864;19.084;2024-02-04T01:37:27;7.70;91.80
68109;SHT30;54893;49.864;19.084;2024-02-04T01:42:28;7.74;91.79
68109;SHT30;54893;49.864;19.084;2024-02-04T01:47:28;7.57;92.39
68109;SHT30;54893;49.864;19.084;2024-02-04T01:52:30;7.64;92.35
68109;SHT30;54893;49.864;19.084;2024-02-04T01:57:32;7.70;92.03
68109;SHT30;54893;49.864;19.084;2024-02-04T02:02:39;7.56;92.66
68109;SHT30;54893;49.864;19.084;2024-02-04T02:07:40;7.63;92.45
68109;SHT30;54893;49.864;19.084;2024-02-04T02:12:47;7.63;92.47
68109;SHT30;54893;49.864;19.084;2024-02-04T02:17:58;7.80;92.33
68109;SHT30;54893;49.864;19.084;2024-02-04T02:23:22;7.59;93.47
68109;SHT30;54893;49.864;19.084;2024-02-04T02:28:23;7.50;94.09
68109;SHT30;54893;49.864;19.084;2024-02-04T02:33:23;7.40;94.38
68109;SHT30;54893;49.864;19.084;2024-02-04T02:38:27;7.37;94.47
68109;SHT30;54893;49.864;19.084;2024-02-04T02:43:32;7.31;94.81
68109;SHT30;54893;49.864;19.084;2024-02-04T02:48:34;7.29;94.70
68109;SHT30;54893;49.864;19.084;2024-02-04T02:53:34;7.34;94.50
68109;SHT30;54893;49.864;19.084;2024-02-04T02:58:34;7.31;94.67
68109;SHT30;54893;49.864;19.084;2024-02-04T03:03:35;7.33;94.70
68109;SHT30;54893;49.864;19.084;2024-02-04T03:08:35;7.33;94.81
68109;SHT30;54893;49.864;19.084;2024-02-04T03:13:38;7.16;95.44
68109;SHT30;54893;49.864;19.084;2024-02-04T03:18:40;7.16;95.59
68109;SHT30;54893;49.864;19.084;2024-02-04T03:23:42;7.22;95.43
68109;SHT30;54893;49.864;19.084;2024-02-04T03:28:42;7.15;96.00
68109;SHT30;54893;49.864;19.084;2024-02-04T03:33:43;7.10;96.12
68109;SHT30;54893;49.864;19.084;2024-02-04T03:38:43;7.15;96.38
68109;SHT30;54893;49.864;19.084;2024-02-04T03:43:44;7.10;96.46
68109;SHT30;54893;49.864;19.084;2024-02-04T03:48:44;7.09;96.73
68109;SHT30;54893;49.864;19.084;2024-02-04T03:53:45;7.12;96.39
68109;SHT30;54893;49.864;19.084;2024-02-04T03:58:46;7.06;96.75
68109;SHT30;54893;49.864;19.084;2024-02-04T04:03:47;7.17;96.36
68109;SHT30;54893;49.864;19.084;2024-02-04T04:08:47;7.22;96.11
68109;SHT30;54893;49.864;19.084;2024-02-04T04:13:48;6.83;97.20
68109;SHT30;54893;49.864;19.084;2024-02-04T04:18:48;6.81;97.24
68109;SHT30;54893;49.864;19.084;2024-02-04T04:23:49;6.82;97.30
68109;SHT30;54893;49.864;19.084;2024-02-04T04:28:50;6.82;97.40
68109;SHT30;54893;49.864;19.084;2024-02-04T04:33:50;6.67;97.87
68109;SHT30;54893;49.864;19.084;2024-02-04T04:38:52;6.62;97.94
68109;SHT30;54893;49.864;19.084;2024-02-04T04:43:52;6.56;98.38
68109;SHT30;54893;49.864;19.084;2024-02-04T04:48:53;6.59;98.39
68109;SHT30;54893;49.864;19.084;2024-02-04T04:53:58;6.59;98.51
68109;SHT30;54893;49.864;19.084;2024-02-04T04:58:58;6.59;98.71
68109;SHT30;54893;49.864;19.084;2024-02-04T05:04:00;6.67;98.51
68109;SHT30;54893;49.864;19.084;2024-02-04T05:09:00;6.65;98.68
68109;SHT30;54893;49.864;19.084;2024-02-04T05:14:00;6.72;98.47
68109;SHT30;54893;49.864;19.084;2024-02-04T05:19:01;6.62;98.71
68109;SHT30;54893;49.864;19.084;2024-02-04T05:24:02;6.65;98.66
68109;SHT30;54893;49.864;19.084;2024-02-04T05:29:02;6.65;98.61
68109;SHT30;54893;49.864;19.084;2024-02-04T05:34:05;6.73;98.35
68109;SHT30;54893;49.864;19.084;2024-02-04T05:39:11;6.65;98.68
68109;SHT30;54893;49.864;19.084;2024-02-04T05:44:12;6.69;98.66
68109;SHT30;54893;49.864;19.084;2024-02-04T05:49:12;6.88;97.85
68109;SHT30;54893;49.864;19.084;2024-02-04T05:54:12;6.89;97.94
68109;SHT30;54893;49.864;19.084;2024-02-04T05:59:13;7.10;94.96
68109;SHT30;54893;49.864;19.084;2024-02-04T06:04:13;6.71;95.96
68109;SHT30;54893;49.864;19.084;2024-02-04T06:09:13;6.62;96.41
68109;SHT30;54893;49.864;19.084;2024-02-04T06:14:14;6.58;96.24
68109;SHT30;54893;49.864;19.084;2024-02-04T06:19:14;6.38;96.35
68109;SHT30;54893;49.864;19.084;2024-02-04T06:24:15;6.34;96.68
68109;SHT30;54893;49.864;19.084;2024-02-04T06:29:15;6.67;94.33
68109;SHT30;54893;49.864;19.084;2024-02-04T06:34:15;6.68;94.17
68109;SHT30;54893;49.864;19.084;2024-02-04T06:39:16;6.64;93.82
68109;SHT30;54893;49.864;19.084;2024-02-04T06:44:16;7.10;91.06
68109;SHT30;54893;49.864;19.084;2024-02-04T06:49:17;6.72;92.61
68109;SHT30;54893;49.864;19.084;2024-02-04T06:54:18;6.72;92.91
68109;SHT30;54893;49.864;19.084;2024-02-04T06:59:18;6.71;92.91
68109;SHT30;54893;49.864;19.084;2024-02-04T07:04:19;6.83;92.47
68109;SHT30;54893;49.864;19.084;2024-02-04T07:09:21;6.86;91.30
68109;SHT30;54893;49.864;19.084;2024-02-04T07:14:22;6.91;91.42
68109;SHT30;54893;49.864;19.084;2024-02-04T07:19:22;6.91;90.79
68109;SHT30;54893;49.864;19.084;2024-02-04T07:24:22;6.65;91.73
68109;SHT30;54893;49.864;19.084;2024-02-04T07:29:23;6.62;92.66
68109;SHT30;54893;49.864;19.084;2024-02-04T07:34:23;6.64;93.30
68109;SHT30;54893;49.864;19.084;2024-02-04T07:39:23;6.46;94.18
68109;SHT30;54893;49.864;19.084;2024-02-04T07:44:24;6.29;94.37
68109;SHT30;54893;49.864;19.084;2024-02-04T07:49:24;6.34;94.27
68109;SHT30;54893;49.864;19.084;2024-02-04T07:54:25;6.20;95.05
68109;SHT30;54893;49.864;19.084;2024-02-04T07:59:25;6.35;95.06
68109;SHT30;54893;49.864;19.084;2024-02-04T08:04:25;5.94;96.10
68109;SHT30;54893;49.864;19.084;2024-02-04T08:09:26;5.75;97.39
68109;SHT30;54893;49.864;19.084;2024-02-04T08:14:26;5.63;97.79
68109;SHT30;54893;49.864;19.084;2024-02-04T08:19:26;5.78;97.24
68109;SHT30;54893;49.864;19.084;2024-02-04T08:24:27;5.73;97.50
68109;SHT30;54893;49.864;19.084;2024-02-04T08:29:29;5.51;98.46
68109;SHT30;54893;49.864;19.084;2024-02-04T08:34:30;5.67;97.76
68109;SHT30;54893;49.864;19.084;2024-02-04T08:39:30;5.81;98.20
68109;SHT30;54893;49.864;19.084;2024-02-04T08:44:31;5.71;98.28
68109;SHT30;54893;49.864;19.084;2024-02-04T08:49:31;5.95;98.16
68109;SHT30;54893;49.864;19.084;2024-02-04T08:54:32;6.07;97.68
68109;SHT30;54893;49.864;19.084;2024-02-04T08:59:41;6.18;97.82
68109;SHT30;54893;49.864;19.084;2024-02-04T09:04:41;6.65;97.18
68109;SHT30;54893;49.864;19.084;2024-02-04T09:09:42;7.30;96.22
68109;SHT30;54893;49.864;19.084;2024-02-04T09:14:42;7.34;96.37
68109;SHT30;54893;49.864;19.084;2024-02-04T09:19:43;7.17;96.87
68109;SHT30;54893;49.864;19.084;2024-02-04T09:24:43;7.31;96.43
68109;SHT30;54893;49.864;19.084;2024-02-04T09:29:44;7.23;96.41
68109;SHT30;54893;49.864;19.084;2024-02-04T09:34:44;7.24;96.45
68109;SHT30;54893;49.864;19.084;2024-02-04T09:39:44;7.29;96.50
68109;SHT30;54893;49.864;19.084;2024-02-04T09:44:46;7.44;96.12
68109;SHT30;54893;49.864;19.084;2024-02-04T09:49:47;7.49;95.99
68109;SHT30;54893;49.864;19.084;2024-02-04T09:54:50;7.63;95.73
68109;SHT30;54893;49.864;19.084;2024-02-04T09:59:50;7.98;95.21
68109;SHT30;54893;49.864;19.084;2024-02-04T10:04:51;8.22;94.04
68109;SHT30;54893;49.864;19.084;2024-02-04T10:09:51;8.45;92.80
68109;SHT30;54893;49.864;19.084;2024-02-04T10:14:52;8.62;91.91
68109;SHT30;54893;49.864;19.084;2024-02-04T10:19:52;8.66;91.61
68109;SHT30;54893;49.864;19.084;2024-02-04T10:24:52;8.72;91.24
68109;SHT30;54893;49.864;19.084;2024-02-04T10:29:53;8.87;90.30
68109;SHT30;54893;49.864;19.084;2024-02-04T10:34:53;9.04;89.81
68109;SHT30;54893;49.864;19.084;2024-02-04T10:39:53;9.07;90.10
68109;SHT30;54893;49.864;19.084;2024-02-04T10:44:54;9.02;89.37
68109;SHT30;54893;49.864;19.084;2024-02-04T10:49:56;8.93;88.71
68109;SHT30;54893;49.864;19.084;2024-02-04T10:54:59;8.73;89.66
68109;SHT30;54893;49.864;19.084;2024-02-04T11:00:00;8.76;90.02
68109;SHT30;54893;49.864;19.084;2024-02-04T11:05:21;8.46;90.21
68109;SHT30;54893;49.864;19.084;2024-02-04T11:10:22;8.27;91.52
68109;SHT30;54893;49.864;19.084;2024-02-04T11:15:28;8.16;92.46
68109;SHT30;54893;49.864;19.084;2024-02-04T11:20:59;8.34;92.81
68109;SHT30;54893;49.864;19.084;2024-02-04T11:26:01;8.65;92.05
68109;SHT30;54893;49.864;19.084;2024-02-04T11:31:03;8.70;92.29
68109;SHT30;54893;49.864;19.084;2024-02-04T11:36:05;8.92;90.77
68109;SHT30;54893;49.864;19.084;2024-02-04T11:41:07;8.96;90.11
68109;SHT30;54893;49.864;19.084;2024-02-04T11:46:16;8.99;90.31
68109;SHT30;54893;49.864;19.084;2024-02-04T11:51:18;8.89;91.25
68109;SHT30;54893;49.864;19.084;2024-02-04T11:56:18;8.65;92.06
68109;SHT30;54893;49.864;19.084;2024-02-04T12:01:22;8.22;93.70
68109;SHT30;54893;49.864;19.084;2024-02-04T12:06:23;8.01;94.71
68109;SHT30;54893;49.864;19.084;2024-02-04T12:11:23;7.95;95.16
68109;SHT30;54893;49.864;19.084;2024-02-04T12:16:24;7.95;95.26
68109;SHT30;54893;49.864;19.084;2024-02-04T12:21:25;8.01;95.31
68109;SHT30;54893;49.864;19.084;2024-02-04T12:26:25;7.99;95.44
68109;SHT30;54893;49.864;19.084;2024-02-04T12:31:26;8.27;94.79
68109;SHT30;54893;49.864;19.084;2024-02-04T12:36:31;8.65;94.00
68109;SHT30;54893;49.864;19.084;2024-02-04T12:41:32;8.97;92.67
68109;SHT30;54893;49.864;19.084;2024-02-04T12:46:33;9.23;91.28
68109;SHT30;54893;49.864;19.084;2024-02-04T12:51:33;9.41;90.29
68109;SHT30;54893;49.864;19.084;2024-02-04T13:01:40;9.40;90.16
68109;SHT30;54893;49.864;19.084;2024-02-04T13:06:41;9.24;90.84
68109;SHT30;54893;49.864;19.084;2024-02-04T13:11:42;9.02;91.60
68109;SHT30;54893;49.864;19.084;2024-02-04T13:16:42;8.82;92.24
68109;SHT30;54893;49.864;19.084;2024-02-04T13:21:43;8.60;92.89
68109;SHT30;54893;49.864;19.084;2024-02-04T13:26:43;8.44;93.37
68109;SHT30;54893;49.864;19.084;2024-02-04T13:31:43;8.62;92.23
68109;SHT30;54893;49.864;19.084;2024-02-04T13:36:44;8.68;92.08
68109;SHT30;54893;49.864;19.084;2024-02-04T13:41:44;8.82;91.50
68109;SHT30;54893;49.864;19.084;2024-02-04T13:46:45;8.84;91.53
68109;SHT30;54893;49.864;19.084;2024-02-04T13:51:45;9.02;90.44
68109;SHT30;54893;49.864;19.084;2024-02-04T13:56:45;9.13;91.03
68109;SHT30;54893;49.864;19.084;2024-02-04T14:01:46;7.60;94.40
68109;SHT30;54893;49.864;19.084;2024-02-04T14:06:47;6.56;96.98
68109;SHT30;54893;49.864;19.084;2024-02-04T14:11:47;6.61;98.30
68109;SHT30;54893;49.864;19.084;2024-02-04T14:16:48;6.55;99.99
68109;SHT30;54893;49.864;19.084;2024-02-04T14:21:48;6.56;99.62
68109;SHT30;54893;49.864;19.084;2024-02-04T14:26:56;6.69;99.68
68109;SHT30;54893;49.864;19.084;2024-02-04T14:31:57;6.56;99.99
68109;SHT30;54893;49.864;19.084;2024-02-04T14:36:57;6.45;99.99
68109;SHT30;54893;49.864;19.084;2024-02-04T14:41:58;6.39;99.99
68109;SHT30;54893;49.864;19.084;2024-02-04T14:46:58;6.44;99.99
68109;SHT30;54893;49.864;19.084;2024-02-04T14:51:59;6.41;99.99
68109;SHT30;54893;49.864;19.084;2024-02-04T14:56:59;6.58;99.99
68109;SHT30;54893;49.864;19.084;2024-02-04T15:02:00;6.37;99.99
68109;SHT30;54893;49.864;19.084;2024-02-04T15:07:00;6.49;99.99
68109;SHT30;54893;49.864;19.084;2024-02-04T15:12:04;6.55;99.99
68109;SHT30;54893;49.864;19.084;2024-02-04T15:17:05;6.56;99.99
68109;SHT30;54893;49.864;19.084;2024-02-04T15:22:06;6.56;99.99
68109;SHT30;54893;49.864;19.084;2024-02-04T15:27:07;6.52;99.99
68109;SHT30;54893;49.864;19.084;2024-02-04T15:32:09;6.46;99.99
68109;SHT30;54893;49.864;19.084;2024-02-04T15:37:10;6.37;99.99
68109;SHT30;54893;49.864;19.084;2024-02-04T15:42:10;6.38;99.99
68109;SHT30;54893;49.864;19.084;2024-02-04T15:47:11;6.38;99.99
68109;SHT30;54893;49.864;19.084;2024-02-04T15:52:12;6.39;99.99
68109;SHT30;54893;49.864;19.084;2024-02-04T15:57:12;6.38;99.99
68109;SHT30;54893;49.864;19.084;2024-02-04T16:02:14;6.41;99.99
68109;SHT30;54893;49.864;19.084;2024-02-04T16:07:15;6.48;99.99
68109;SHT30;54893;49.864;19.084;2024-02-04T16:12:19;6.59;99.99
68109;SHT30;54893;49.864;19.084;2024-02-04T16:17:20;7.03;99.99
68109;SHT30;54893;49.864;19.084;2024-02-04T16:22:21;7.26;99.77
68109;SHT30;54893;49.864;19.084;2024-02-04T16:27:21;7.54;98.53
68109;SHT30;54893;49.864;19.084;2024-02-04T16:32:21;7.60;97.50
68109;SHT30;54893;49.864;19.084;2024-02-04T16:37:22;7.64;97.53
68109;SHT30;54893;49.864;19.084;2024-02-04T16:42:22;7.67;97.41
68109;SHT30;54893;49.864;19.084;2024-02-04T16:47:25;7.50;98.21
68109;SHT30;54893;49.864;19.084;2024-02-04T16:52:25;7.60;97.55
68109;SHT30;54893;49.864;19.084;2024-02-04T16:57:26;7.53;97.86
68109;SHT30;54893;49.864;19.084;2024-02-04T17:02:26;7.53;97.63
68109;SHT30;54893;49.864;19.084;2024-02-04T17:07:28;7.64;97.06
68109;SHT30;54893;49.864;19.084;2024-02-04T17:12:29;7.71;96.46
68109;SHT30;54893;49.864;19.084;2024-02-04T17:17:33;7.84;95.86
68109;SHT30;54893;49.864;19.084;2024-02-04T17:22:35;7.70;96.22
68109;SHT30;54893;49.864;19.084;2024-02-04T17:27:39;7.78;95.68
68109;SHT30;54893;49.864;19.084;2024-02-04T17:32:41;8.01;94.48
68109;SHT30;54893;49.864;19.084;2024-02-04T17:37:43;8.09;94.08
68109;SHT30;54893;49.864;19.084;2024-02-04T17:42:44;8.02;94.41
68109;SHT30;54893;49.864;19.084;2024-02-04T17:47:45;8.01;95.02
68109;SHT30;54893;49.864;19.084;2024-02-04T17:52:46;7.83;95.79
68109;SHT30;54893;49.864;19.084;2024-02-04T17:57:47;7.94;95.62
68109;SHT30;54893;49.864;19.084;2024-02-04T18:02:47;8.16;93.10
68109;SHT30;54893;49.864;19.084;2024-02-04T18:07:47;8.05;93.16
68109;SHT30;54893;49.864;19.084;2024-02-04T18:12:51;7.78;93.32
68109;SHT30;54893;49.864;19.084;2024-02-04T18:17:51;7.78;91.94
68109;SHT30;54893;49.864;19.084;2024-02-04T18:22:53;7.81;90.64
68109;SHT30;54893;49.864;19.084;2024-02-04T18:27:53;7.74;91.07
68109;SHT30;54893;49.864;19.084;2024-02-04T18:32:54;7.61;91.65
68109;SHT30;54893;49.864;19.084;2024-02-04T18:37:54;7.66;91.67
68109;SHT30;54893;49.864;19.084;2024-02-04T18:42:55;7.61;92.03
68109;SHT30;54893;49.864;19.084;2024-02-04T18:47:57;7.61;92.25
68109;SHT30;54893;49.864;19.084;2024-02-04T18:52:58;7.49;93.09
68109;SHT30;54893;49.864;19.084;2024-02-04T18:58:00;7.53;93.22
68109;SHT30;54893;49.864;19.084;2024-02-04T19:03:00;7.60;93.42
68109;SHT30;54893;49.864;19.084;2024-02-04T19:08:01;7.60;93.61
68109;SHT30;54893;49.864;19.084;2024-02-04T19:13:02;7.64;93.64
68109;SHT30;54893;49.864;19.084;2024-02-04T19:18:03;7.81;93.02
68109;SHT30;54893;49.864;19.084;2024-02-04T19:23:04;7.83;93.01
68109;SHT30;54893;49.864;19.084;2024-02-04T19:28:04;7.97;92.56
68109;SHT30;54893;49.864;19.084;2024-02-04T19:33:05;8.06;92.29
68109;SHT30;54893;49.864;19.084;2024-02-04T19:38:06;8.01;92.21
68109;SHT30;54893;49.864;19.084;2024-02-04T19:43:07;7.87;92.66
68109;SHT30;54893;49.864;19.084;2024-02-04T19:48:07;7.93;92.61
68109;SHT30;54893;49.864;19.084;2024-02-04T19:53:08;7.90;92.81
68109;SHT30;54893;49.864;19.084;2024-02-04T19:58:09;8.09;91.47
68109;SHT30;54893;49.864;19.084;2024-02-04T20:03:09;8.15;90.22
68109;SHT30;54893;49.864;19.084;2024-02-04T20:08:10;8.37;88.83
68109;SHT30;54893;49.864;19.084;2024-02-04T20:13:12;8.28;88.43
68109;SHT30;54893;49.864;19.084;2024-02-04T20:18:12;8.16;88.95
68109;SHT30;54893;49.864;19.084;2024-02-04T20:23:14;8.06;88.92
68109;SHT30;54893;49.864;19.084;2024-02-04T20:28:15;7.85;90.49
68109;SHT30;54893;49.864;19.084;2024-02-04T20:33:16;7.77;91.70
68109;SHT30;54893;49.864;19.084;2024-02-04T20:38:16;7.70;92.87
68109;SHT30;54893;49.864;19.084;2024-02-04T20:43:18;7.49;93.22
68109;SHT30;54893;49.864;19.084;2024-02-04T20:48:20;7.49;93.22
68109;SHT30;54893;49.864;19.084;2024-02-04T20:53:21;7.06;94.09
68109;SHT30;54893;49.864;19.084;2024-02-04T20:58:21;6.91;94.62
68109;SHT30;54893;49.864;19.084;2024-02-04T21:03:22;6.86;93.54
68109;SHT30;54893;49.864;19.084;2024-02-04T21:08:24;6.51;93.09
68109;SHT30;54893;49.864;19.084;2024-02-04T21:13:26;6.65;91.68
68109;SHT30;54893;49.864;19.084;2024-02-04T21:18:26;6.17;91.42
68109;SHT30;54893;49.864;19.084;2024-02-04T21:23:27;6.03;91.74
68109;SHT30;54893;49.864;19.084;2024-02-04T21:28:27;5.80;92.29
68109;SHT30;54893;49.864;19.084;2024-02-04T21:33:29;5.80;92.21
68109;SHT30;54893;49.864;19.084;2024-02-04T21:38:29;5.63;92.66
68109;SHT30;54893;49.864;19.084;2024-02-04T21:43:30;5.66;92.92
68109;SHT30;54893;49.864;19.084;2024-02-04T21:48:30;5.50;93.97
68109;SHT30;54893;49.864;19.084;2024-02-04T21:53:30;5.49;94.80
68109;SHT30;54893;49.864;19.084;2024-02-04T21:58:31;5.49;95.10
68109;SHT30;54893;49.864;19.084;2024-02-04T22:03:31;5.29;95.89
68109;SHT30;54893;49.864;19.084;2024-02-04T22:08:33;5.11;96.74
68109;SHT30;54893;49.864;19.084;2024-02-04T22:13:34;5.06;97.19
68109;SHT30;54893;49.864;19.084;2024-02-04T22:18:34;5.03;97.43
68109;SHT30;54893;49.864;19.084;2024-02-04T22:23:37;5.12;97.67
68109;SHT30;54893;49.864;19.084;2024-02-04T22:28:37;5.08;97.93
68109;SHT30;54893;49.864;19.084;2024-02-04T22:33:39;5.08;98.16
68109;SHT30;54893;49.864;19.084;2024-02-04T22:38:40;5.09;98.31
68109;SHT30;54893;49.864;19.084;2024-02-04T22:43:41;5.09;98.57
68109;SHT30;54893;49.864;19.084;2024-02-04T22:48:42;5.11;98.66
68109;SHT30;54893;49.864;19.084;2024-02-04T22:53:42;5.13;98.86
68109;SHT30;54893;49.864;19.084;2024-02-04T22:58:43;5.13;99.24
68109;SHT30;54893;49.864;19.084;2024-02-04T23:03:43;5.46;98.63
68109;SHT30;54893;49.864;19.084;2024-02-04T23:08:45;5.56;97.73
68109;SHT30;54893;49.864;19.084;2024-02-04T23:13:45;5.43;98.38
68109;SHT30;54893;49.864;19.084;2024-02-04T23:18:50;5.51;98.54
68109;SHT30;54893;49.864;19.084;2024-02-04T23:23:50;5.87;97.68
68109;SHT30;54893;49.864;19.084;2024-02-04T23:28:51;5.71;97.52
68109;SHT30;54893;49.864;19.084;2024-02-04T23:33:51;5.49;98.32
68109;SHT30;54893;49.864;19.084;2024-02-04T23:38:51;5.67;97.65
68109;SHT30;54893;49.864;19.084;2024-02-04T23:43:52;5.71;97.70
68109;SHT30;54893;49.864;19.084;2024-02-04T23:48:52;5.44;96.99
68109;SHT30;54893;49.864;19.084;2024-02-04T23:53:52;5.42;97.58
68109;SHT30;54893;49.864;19.084;2024-02-04T23:58:53;5.16;98.29
